sensor_id;sensor_type;location;lat;lon;timestamp;pressure;altitude;pressure_sealevel;temperature;humidity
34921;BME280;21128;50.016;20.002;2022-08-18T00:04:43;98529.43;;;20.80;100.00
34921;BME280;21128;50.016;20.002;2022-08-18T00:07:21;98527.58;;;20.81;100.00
34921;BME280;21128;50.016;20.002;2022-08-18T00:09:49;98538.89;;;20.76;100.00
34921;BME280;21128;50.016;20.002;2022-08-18T00:12:22;98538.52;;;20.73;100.00
34921;BME280;21128;50.016;20.002;2022-08-18T00:14:50;98542.22;;;20.72;100.00
34921;BME280;21128;50.016;20.002;2022-08-18T00:17:17;98543.85;;;20.73;100.00
34921;BME280;21128;50.016;20.002;2022-08-18T00:19:45;98545.11;;;20.70;100.00
34921;BME280;21128;50.016;20.002;2022-08-18T00:22:14;98540.84;;;20.63;100.00
34921;BME280;21128;50.016;20.002;2022-08-18T00:24:44;98536.13;;;20.58;100.00
34921;BME280;21128;50.016;20.002;2022-08-18T00:27:11;98537.37;;;20.56;100.00
34921;BME280;21128;50.016;20.002;2022-08-18T00:29:38;98535.74;;;20.55;100.00
34921;BME280;21128;50.016;20.002;2022-08-18T00:32:16;98533.30;;;20.53;100.00
34921;BME280;21128;50.016;20.002;2022-08-18T00:34:44;98532.88;;;20.49;100.00
34921;BME280;21128;50.016;20.002;2022-08-18T00:37:11;98542.96;;;20.47;100.00
34921;BME280;21128;50.016;20.002;2022-08-18T00:39:52;98549.55;;;20.45;100.00
34921;BME280;21128;50.016;20.002;2022-08-18T00:42:26;98555.92;;;20.44;100.00
34921;BME280;21128;50.016;20.002;2022-08-18T00:44:54;98549.77;;;20.37;100.00
34921;BME280;21128;50.016;20.002;2022-08-18T00:47:21;98554.30;;;20.30;100.00
34921;BME280;21128;50.016;20.002;2022-08-18T00:49:50;98554.31;;;20.23;100.00
34921;BME280;21128;50.016;20.002;2022-08-18T00:52:25;98548.98;;;20.23;100.00
34921;BME280;21128;50.016;20.002;2022-08-18T00:54:52;98538.31;;;20.23;100.00
34921;BME280;21128;50.016;20.002;2022-08-18T00:57:21;98533.58;;;20.25;100.00
34921;BME280;21128;50.016;20.002;2022-08-18T01:00:00;98536.88;;;20.27;100.00
34921;BME280;21128;50.016;20.002;2022-08-18T01:02:36;98533.17;;;20.28;100.00
34921;BME280;21128;50.016;20.002;2022-08-18T01:05:09;98526.39;;;20.25;100.00
34921;BME280;21128;50.016;20.002;2022-08-18T01:07:47;98523.13;;;20.23;100.00
34921;BME280;21128;50.016;20.002;2022-08-18T01:10:19;98529.27;;;20.24;100.00
34921;BME280;21128;50.016;20.002;2022-08-18T01:12:50;98530.09;;;20.24;100.00
34921;BME280;21128;50.016;20.002;2022-08-18T01:15:19;98531.72;;;20.25;100.00
34921;BME280;21128;50.016;20.002;2022-08-18T01:17:47;98532.76;;;20.24;100.00
34921;BME280;21128;50.016;20.002;2022-08-18T01:23:37;98536.67;;;20.22;100.00
34921;BME280;21128;50.016;20.002;2022-08-18T01:26:05;98524.38;;;20.21;100.00
34921;BME280;21128;50.016;20.002;2022-08-18T01:28:40;98522.52;;;20.21;100.00
34921;BME280;21128;50.016;20.002;2022-08-18T01:31:08;98514.52;;;20.21;100.00
34921;BME280;21128;50.016;20.002;2022-08-18T01:33:41;98512.28;;;20.18;100.00
34921;BME280;21128;50.016;20.002;2022-08-18T01:36:17;98514.97;;;20.12;100.00
34921;BME280;21128;50.016;20.002;2022-08-18T01:38:46;98512.11;;;20.07;100.00
34921;BME280;21128;50.016;20.002;2022-08-18T01:41:21;98509.27;;;20.02;100.00
34921;BME280;21128;50.016;20.002;2022-08-18T01:43:48;98513.78;;;20.01;100.00
34921;BME280;21128;50.016;20.002;2022-08-18T01:46:19;98512.94;;;20.01;100.00
34921;BME280;21128;50.016;20.002;2022-08-18T01:48:47;98509.67;;;19.99;100.00
34921;BME280;21128;50.016;20.002;2022-08-18T01:51:16;98511.95;;;19.95;100.00
34921;BME280;21128;50.016;20.002;2022-08-18T01:53:52;98511.75;;;19.90;100.00
34921;BME280;21128;50.016;20.002;2022-08-18T01:56:19;98507.66;;;19.87;100.00
34921;BME280;21128;50.016;20.002;2022-08-18T01:58:46;98502.55;;;19.86;100.00
34921;BME280;21128;50.016;20.002;2022-08-18T02:01:14;98508.09;;;19.84;100.00
34921;BME280;21128;50.016;20.002;2022-08-18T02:03:45;98508.09;;;19.84;100.00
34921;BME280;21128;50.016;20.002;2022-08-18T02:06:27;98510.77;;;19.84;100.00
34921;BME280;21128;50.016;20.002;2022-08-18T02:09:00;98503.98;;;19.75;100.00
34921;BME280;21128;50.016;20.002;2022-08-18T02:11:27;98519.39;;;19.66;100.00
34921;BME280;21128;50.016;20.002;2022-08-18T02:13:53;98515.30;;;19.64;100.00
34921;BME280;21128;50.016;20.002;2022-08-18T02:16:20;98508.13;;;19.64;100.00
34921;BME280;21128;50.016;20.002;2022-08-18T02:18:47;98509.75;;;19.65;100.00
34921;BME280;21128;50.016;20.002;2022-08-18T02:21:20;98505.06;;;19.67;100.00
34921;BME280;21128;50.016;20.002;2022-08-18T02:23:48;98499.52;;;19.69;100.00
34921;BME280;21128;50.016;20.002;2022-08-18T02:26:16;98502.78;;;19.71;100.00
34921;BME280;21128;50.016;20.002;2022-08-18T02:28:44;98504.42;;;19.72;100.00
34921;BME280;21128;50.016;20.002;2022-08-18T02:31:15;98506.87;;;19.74;100.00
34921;BME280;21128;50.016;20.002;2022-08-18T02:33:43;98507.08;;;19.72;100.00
34921;BME280;21128;50.016;20.002;2022-08-18T02:36:11;98501.55;;;19.67;100.00
34921;BME280;21128;50.016;20.002;2022-08-18T02:38:39;98501.16;;;19.63;100.00
34921;BME280;21128;50.016;20.002;2022-08-18T02:41:13;98500.94;;;19.65;100.00
34921;BME280;21128;50.016;20.002;2022-08-18T02:43:40;98498.06;;;19.66;100.00
34921;BME280;21128;50.016;20.002;2022-08-18T02:46:08;98492.55;;;19.68;100.00
34921;BME280;21128;50.016;20.002;2022-08-18T02:48:35;98486.41;;;19.67;100.00
34921;BME280;21128;50.016;20.002;2022-08-18T02:51:11;98483.53;;;19.62;100.00
34921;BME280;21128;50.016;20.002;2022-08-18T02:53:43;98491.74;;;19.61;100.00
34921;BME280;21128;50.016;20.002;2022-08-18T02:56:19;98495.44;;;19.60;100.00
34921;BME280;21128;50.016;20.002;2022-08-18T02:58:59;98493.77;;;19.59;100.00
34921;BME280;21128;50.016;20.002;2022-08-18T03:01:36;98499.95;;;19.59;100.00
34921;BME280;21128;50.016;20.002;2022-08-18T03:04:06;98500.77;;;19.60;100.00
34921;BME280;21128;50.016;20.002;2022-08-18T03:06:55;98500.77;;;19.60;100.00
34921;BME280;21128;50.016;20.002;2022-08-18T03:09:22;98491.74;;;19.61;100.00
34921;BME280;21128;50.016;20.002;2022-08-18T03:11:49;98488.26;;;19.60;100.00
34921;BME280;21128;50.016;20.002;2022-08-18T03:14:16;98488.66;;;19.57;100.00
34921;BME280;21128;50.016;20.002;2022-08-18T03:16:45;98497.47;;;19.51;100.00
34921;BME280;21128;50.016;20.002;2022-08-18T03:19:13;98498.50;;;19.44;100.00
34921;BME280;21128;50.016;20.002;2022-08-18T03:21:44;98506.89;;;19.40;100.00
34921;BME280;21128;50.016;20.002;2022-08-18T03:24:12;98513.06;;;19.34;100.00
34921;BME280;21128;50.016;20.002;2022-08-18T03:26:42;98515.30;;;19.31;100.00
34921;BME280;21128;50.016;20.002;2022-08-18T03:29:10;98527.59;;;19.25;100.00
34921;BME280;21128;50.016;20.002;2022-08-18T03:31:38;98518.39;;;19.21;100.00
34921;BME280;21128;50.016;20.002;2022-08-18T03:34:11;98529.25;;;19.20;100.00
34921;BME280;21128;50.016;20.002;2022-08-18T03:36:38;98524.95;;;19.19;100.00
34921;BME280;21128;50.016;20.002;2022-08-18T03:39:09;98524.52;;;19.15;100.00
34921;BME280;21128;50.016;20.002;2022-08-18T03:41:43;98532.72;;;19.13;100.00
34921;BME280;21128;50.016;20.002;2022-08-18T03:44:12;98537.23;;;19.13;100.00
34921;BME280;21128;50.016;20.002;2022-08-18T03:46:42;98533.96;;;19.11;100.00
34921;BME280;21128;50.016;20.002;2022-08-18T03:49:17;98540.70;;;19.07;100.00
34921;BME280;21128;50.016;20.002;2022-08-18T03:51:50;98542.98;;;19.10;100.00
34921;BME280;21128;50.016;20.002;2022-08-18T03:54:17;98549.52;;;19.14;100.00
34921;BME280;21128;50.016;20.002;2022-08-18T03:56:46;98557.51;;;19.14;100.00
34921;BME280;21128;50.016;20.002;2022-08-18T03:59:16;98560.37;;;19.12;100.00
34921;BME280;21128;50.016;20.002;2022-08-18T04:01:45;98553.21;;;19.13;100.00
34921;BME280;21128;50.016;20.002;2022-08-18T04:04:17;98552.19;;;19.14;100.00
34921;BME280;21128;50.016;20.002;2022-08-18T04:07:08;98555.66;;;19.15;100.00
34921;BME280;21128;50.016;20.002;2022-08-18T04:09:37;98550.76;;;19.11;100.00
34921;BME280;21128;50.016;20.002;2022-08-18T04:12:10;98556.30;;;19.10;100.00
34921;BME280;21128;50.016;20.002;2022-08-18T04:14:39;98555.66;;;19.08;100.00
34921;BME280;21128;50.016;20.002;2022-08-18T04:17:07;98563.64;;;19.08;100.00
34921;BME280;21128;50.016;20.002;2022-08-18T04:19:35;98566.92;;;19.03;100.00
34921;BME280;21128;50.016;20.002;2022-08-18T04:22:04;98569.16;;;19.00;100.00
34921;BME280;21128;50.016;20.002;2022-08-18T04:24:32;98572.23;;;18.97;100.00
34921;BME280;21128;50.016;20.002;2022-08-18T04:27:02;98575.92;;;18.96;100.00
34921;BME280;21128;50.016;20.002;2022-08-18T04:29:30;98574.67;;;18.92;100.00
34921;BME280;21128;50.016;20.002;2022-08-18T04:32:00;98575.70;;;18.91;100.00
34921;BME280;21128;50.016;20.002;2022-08-18T04:34:28;98569.97;;;18.87;100.00
34921;BME280;21128;50.016;20.002;2022-08-18T04:36:55;98578.98;;;18.86;100.00
34921;BME280;21128;50.016;20.002;2022-08-18T04:39:22;98582.67;;;18.85;100.00
34921;BME280;21128;50.016;20.002;2022-08-18T04:41:56;98578.36;;;18.91;100.00
34921;BME280;21128;50.016;20.002;2022-08-18T04:44:25;98578.59;;;18.96;100.00
34921;BME280;21128;50.016;20.002;2022-08-18T04:46:53;98580.66;;;19.00;100.00
34921;BME280;21128;50.016;20.002;2022-08-18T04:49:23;98578.17;;;18.99;100.00
34921;BME280;21128;50.016;20.002;2022-08-18T04:51:58;98581.25;;;18.96;100.00
34921;BME280;21128;50.016;20.002;2022-08-18T04:54:44;98587.60;;;18.95;100.00
34921;BME280;21128;50.016;20.002;2022-08-18T04:57:12;98589.45;;;18.94;100.00
34921;BME280;21128;50.016;20.002;2022-08-18T04:59:48;98591.90;;;18.96;100.00
34921;BME280;21128;50.016;20.002;2022-08-18T05:02:16;98589.84;;;18.98;100.00
34921;BME280;21128;50.016;20.002;2022-08-18T05:04:43;98586.16;;;18.99;100.00
34921;BME280;21128;50.016;20.002;2022-08-18T05:07:31;98586.59;;;19.02;100.00
34921;BME280;21128;50.016;20.002;2022-08-18T05:10:05;98590.28;;;19.01;100.00
34921;BME280;21128;50.016;20.002;2022-08-18T05:12:32;98582.91;;;19.03;100.00
34921;BME280;21128;50.016;20.002;2022-08-18T05:14:58;98586.78;;;19.07;100.00
34921;BME280;21128;50.016;20.002;2022-08-18T05:17:25;98588.44;;;19.15;100.00
34921;BME280;21128;50.016;20.002;2022-08-18T05:19:54;98583.55;;;19.19;100.00
34921;BME280;21128;50.016;20.002;2022-08-18T05:22:20;98581.70;;;19.19;100.00
34921;BME280;21128;50.016;20.002;2022-08-18T05:24:47;98590.51;;;19.20;100.00
34921;BME280;21128;50.016;20.002;2022-08-18T05:27:14;98589.70;;;19.26;100.00
34921;BME280;21128;50.016;20.002;2022-08-18T05:29:41;98594.20;;;19.38;100.00
34921;BME280;21128;50.016;20.002;2022-08-18T05:32:07;98586.23;;;19.52;100.00
34921;BME280;21128;50.016;20.002;2022-08-18T05:34:35;98583.17;;;19.68;100.00
34921;BME280;21128;50.016;20.002;2022-08-18T05:37:05;98594.23;;;19.85;100.00
34921;BME280;21128;50.016;20.002;2022-08-18T05:39:58;98596.64;;;20.06;100.00
34921;BME280;21128;50.016;20.002;2022-08-18T05:42:38;98594.94;;;20.25;100.00
34921;BME280;21128;50.016;20.002;2022-08-18T05:45:14;98596.54;;;20.39;100.00
34921;BME280;21128;50.016;20.002;2022-08-18T05:47:42;98596.10;;;20.56;100.00
34921;BME280;21128;50.016;20.002;2022-08-18T05:50:17;98605.06;;;20.68;100.00
34921;BME280;21128;50.016;20.002;2022-08-18T05:55:26;98604.08;;;21.00;100.00
34921;BME280;21128;50.016;20.002;2022-08-18T05:58:24;98599.85;;;21.18;100.00
34921;BME280;21128;50.016;20.002;2022-08-18T06:01:03;98593.20;;;21.33;100.00
34921;BME280;21128;50.016;20.002;2022-08-18T06:03:36;98603.13;;;21.51;100.00
34921;BME280;21128;50.016;20.002;2022-08-18T06:06:27;98607.61;;;21.57;100.00
34921;BME280;21128;50.016;20.002;2022-08-18T06:09:18;98601.41;;;21.63;100.00
34921;BME280;21128;50.016;20.002;2022-08-18T06:11:48;98596.96;;;21.76;100.00
34921;BME280;21128;50.016;20.002;2022-08-18T06:14:16;98597.44;;;21.91;100.00
34921;BME280;21128;50.016;20.002;2022-08-18T06:19:33;98595.52;;;21.98;100.00
34921;BME280;21128;50.016;20.002;2022-08-18T06:22:23;98601.04;;;22.03;100.00
34921;BME280;21128;50.016;20.002;2022-08-18T06:25:00;98598.11;;;22.11;100.00
34921;BME280;21128;50.016;20.002;2022-08-18T06:27:39;98609.34;;;22.20;100.00
34921;BME280;21128;50.016;20.002;2022-08-18T06:30:16;98601.44;;;22.25;100.00
34921;BME280;21128;50.016;20.002;2022-08-18T06:35:47;98602.34;;;22.37;100.00
34921;BME280;21128;50.016;20.002;2022-08-18T06:41:19;98604.62;;;22.52;100.00
34921;BME280;21128;50.016;20.002;2022-08-18T06:43:57;98602.09;;;22.57;100.00
34921;BME280;21128;50.016;20.002;2022-08-18T06:46:34;98606.69;;;22.68;100.00
34921;BME280;21128;50.016;20.002;2022-08-18T06:49:07;98611.50;;;22.78;100.00
34921;BME280;21128;50.016;20.002;2022-08-18T06:51:35;98607.52;;;22.87;100.00
34921;BME280;21128;50.016;20.002;2022-08-18T06:54:24;98612.19;;;22.92;100.00
34921;BME280;21128;50.016;20.002;2022-08-18T06:56:57;98615.91;;;22.91;100.00
34921;BME280;21128;50.016;20.002;2022-08-18T06:59:33;98628.02;;;22.93;100.00
34921;BME280;21128;50.016;20.002;2022-08-18T07:03:06;98623.40;;;23.00;100.00
34921;BME280;21128;50.016;20.002;2022-08-18T07:05:20;98625.09;;;23.13;100.00
34921;BME280;21128;50.016;20.002;2022-08-18T07:08:32;98625.20;;;23.18;100.00
34921;BME280;21128;50.016;20.002;2022-08-18T07:11:18;98619.28;;;23.28;100.00
34921;BME280;21128;50.016;20.002;2022-08-18T07:13:48;98622.25;;;23.38;100.00
34921;BME280;21128;50.016;20.002;2022-08-18T07:16:23;98622.02;;;23.40;100.00
34921;BME280;21128;50.016;20.002;2022-08-18T07:18:51;98622.39;;;23.55;100.00
34921;BME280;21128;50.016;20.002;2022-08-18T07:21:28;98625.34;;;23.65;100.00
34921;BME280;21128;50.016;20.002;2022-08-18T07:24:07;98619.75;;;23.78;100.00
34921;BME280;21128;50.016;20.002;2022-08-18T07:29:26;98626.52;;;24.04;100.00
34921;BME280;21128;50.016;20.002;2022-08-18T07:32:08;98619.28;;;24.17;100.00
34921;BME280;21128;50.016;20.002;2022-08-18T07:34:49;98617.62;;;24.27;100.00
34921;BME280;21128;50.016;20.002;2022-08-18T07:37:45;98622.88;;;24.46;100.00
34921;BME280;21128;50.016;20.002;2022-08-18T07:40:40;98619.37;;;24.57;100.00
34921;BME280;21128;50.016;20.002;2022-08-18T07:43:36;98629.83;;;24.70;100.00
34921;BME280;21128;50.016;20.002;2022-08-18T07:46:12;98623.38;;;24.83;100.00
34921;BME280;21128;50.016;20.002;2022-08-18T07:48:41;98617.69;;;24.96;100.00
34921;BME280;21128;50.016;20.002;2022-08-18T07:51:24;98613.84;;;25.04;99.76
34921;BME280;21128;50.016;20.002;2022-08-18T07:54:10;98612.88;;;25.10;99.66
34921;BME280;21128;50.016;20.002;2022-08-18T08:07:59;98601.28;;;25.88;97.36
34921;BME280;21128;50.016;20.002;2022-08-18T08:10:46;98594.19;;;25.99;96.45
34921;BME280;21128;50.016;20.002;2022-08-18T08:13:51;98590.87;;;26.14;96.71
34921;BME280;21128;50.016;20.002;2022-08-18T08:16:36;98603.80;;;26.33;95.63
34921;BME280;21128;50.016;20.002;2022-08-18T08:22:07;98599.88;;;26.63;94.87
34921;BME280;21128;50.016;20.002;2022-08-18T08:30:16;98596.26;;;27.01;93.04
34921;BME280;21128;50.016;20.002;2022-08-18T08:35:24;98593.16;;;27.41;91.46
34921;BME280;21128;50.016;20.002;2022-08-18T08:38:03;98592.50;;;27.61;90.89
34921;BME280;21128;50.016;20.002;2022-08-18T08:41:02;98592.11;;;27.80;89.11
34921;BME280;21128;50.016;20.002;2022-08-18T08:43:36;98590.05;;;27.92;88.17
34921;BME280;21128;50.016;20.002;2022-08-18T08:46:23;98589.03;;;28.08;87.41
34921;BME280;21128;50.016;20.002;2022-08-18T08:49:00;98591.82;;;28.23;86.38
34921;BME280;21128;50.016;20.002;2022-08-18T08:51:49;98598.69;;;28.41;84.38
34921;BME280;21128;50.016;20.002;2022-08-18T08:54:26;98600.08;;;28.49;82.90
34921;BME280;21128;50.016;20.002;2022-08-18T08:56:58;98602.27;;;28.52;83.08
34921;BME280;21128;50.016;20.002;2022-08-18T08:59:26;98598.25;;;28.65;82.25
34921;BME280;21128;50.016;20.002;2022-08-18T09:02:30;98605.33;;;28.81;82.40
34921;BME280;21128;50.016;20.002;2022-08-18T09:05:18;98608.33;;;28.84;80.22
34921;BME280;21128;50.016;20.002;2022-08-18T09:13:42;98613.79;;;28.95;78.91
34921;BME280;21128;50.016;20.002;2022-08-18T09:25:09;98613.86;;;29.35;77.29
34921;BME280;21128;50.016;20.002;2022-08-18T09:27:41;98615.20;;;29.38;75.00
34921;BME280;21128;50.016;20.002;2022-08-18T09:30:41;98607.88;;;29.33;75.12
34921;BME280;21128;50.016;20.002;2022-08-18T09:36:11;98615.25;;;29.53;70.83
34921;BME280;21128;50.016;20.002;2022-08-18T09:38:56;98610.34;;;29.81;70.38
34921;BME280;21128;50.016;20.002;2022-08-18T09:41:53;98607.06;;;30.09;68.95
34921;BME280;21128;50.016;20.002;2022-08-18T09:47:07;98617.53;;;30.46;67.53
34921;BME280;21128;50.016;20.002;2022-08-18T09:49:44;98616.68;;;30.56;65.93
34921;BME280;21128;50.016;20.002;2022-08-18T09:54:53;98622.08;;;30.66;65.00
34921;BME280;21128;50.016;20.002;2022-08-18T09:57:24;98604.92;;;30.86;64.75
34921;BME280;21128;50.016;20.002;2022-08-18T10:05:34;98619.53;;;31.34;63.03
34921;BME280;21128;50.016;20.002;2022-08-18T10:10:53;98612.55;;;31.62;58.75
34921;BME280;21128;50.016;20.002;2022-08-18T10:13:41;98616.30;;;31.66;56.75
34921;BME280;21128;50.016;20.002;2022-08-18T10:16:27;98620.02;;;31.81;56.83
34921;BME280;21128;50.016;20.002;2022-08-18T10:19:46;98617.41;;;31.94;56.46
34921;BME280;21128;50.016;20.002;2022-08-18T10:22:08;98613.45;;;32.11;55.97
34921;BME280;21128;50.016;20.002;2022-08-18T10:24:52;98608.73;;;32.21;55.36
34921;BME280;21128;50.016;20.002;2022-08-18T10:30:44;98593.22;;;31.98;52.75
34921;BME280;21128;50.016;20.002;2022-08-18T10:34:06;98596.59;;;31.85;52.42
34921;BME280;21128;50.016;20.002;2022-08-18T10:36:43;98592.73;;;31.62;52.27
34921;BME280;21128;50.016;20.002;2022-08-18T10:39:15;98594.38;;;31.58;52.37
34921;BME280;21128;50.016;20.002;2022-08-18T10:45:17;98582.31;;;31.69;52.27
34921;BME280;21128;50.016;20.002;2022-08-18T10:47:58;98586.06;;;31.78;52.81
34921;BME280;21128;50.016;20.002;2022-08-18T10:50:29;98578.93;;;31.87;52.31
34921;BME280;21128;50.016;20.002;2022-08-18T10:56:25;98560.67;;;32.41;52.43
34921;BME280;21128;50.016;20.002;2022-08-18T11:04:57;98566.58;;;32.67;51.90
34921;BME280;21128;50.016;20.002;2022-08-18T11:07:38;98565.00;;;32.85;50.20
34921;BME280;21128;50.016;20.002;2022-08-18T11:10:21;98566.08;;;32.65;49.04
34921;BME280;21128;50.016;20.002;2022-08-18T11:12:59;98563.80;;;32.72;49.24
34921;BME280;21128;50.016;20.002;2022-08-18T11:15:55;98560.87;;;32.87;48.88
34921;BME280;21128;50.016;20.002;2022-08-18T11:18:42;98550.50;;;33.08;48.75
34921;BME280;21128;50.016;20.002;2022-08-18T11:26:48;98558.28;;;33.80;47.07
34921;BME280;21128;50.016;20.002;2022-08-18T11:29:38;98552.91;;;33.61;45.80
34921;BME280;21128;50.016;20.002;2022-08-18T11:37:59;98546.11;;;33.45;45.26
34921;BME280;21128;50.016;20.002;2022-08-18T11:45:52;98517.13;;;33.81;43.92
34921;BME280;21128;50.016;20.002;2022-08-18T11:53:55;98526.16;;;33.63;44.51
34921;BME280;21128;50.016;20.002;2022-08-18T11:56:29;98513.77;;;33.57;43.17
34921;BME280;21128;50.016;20.002;2022-08-18T11:58:59;98520.83;;;33.58;43.32
34921;BME280;21128;50.016;20.002;2022-08-18T12:09:42;98508.20;;;33.62;42.21
34921;BME280;21128;50.016;20.002;2022-08-18T12:12:16;98501.06;;;33.66;41.15
34921;BME280;21128;50.016;20.002;2022-08-18T12:15:00;98501.89;;;33.80;41.83
34921;BME280;21128;50.016;20.002;2022-08-18T12:17:30;98494.75;;;33.98;41.86
34921;BME280;21128;50.016;20.002;2022-08-18T12:19:58;98490.52;;;34.06;41.05
34921;BME280;21128;50.016;20.002;2022-08-18T12:22:28;98491.41;;;34.15;41.17
34921;BME280;21128;50.016;20.002;2022-08-18T12:24:57;98495.23;;;34.41;41.22
34921;BME280;21128;50.016;20.002;2022-08-18T12:27:26;98483.89;;;34.34;41.07
34921;BME280;21128;50.016;20.002;2022-08-18T12:29:55;98477.65;;;34.20;40.24
34921;BME280;21128;50.016;20.002;2022-08-18T12:32:25;98472.78;;;34.45;40.19
34921;BME280;21128;50.016;20.002;2022-08-18T12:34:52;98471.39;;;34.69;40.14
34921;BME280;21128;50.016;20.002;2022-08-18T12:37:25;98469.36;;;34.75;39.75
34921;BME280;21128;50.016;20.002;2022-08-18T12:39:55;98470.34;;;34.79;39.79
34921;BME280;21128;50.016;20.002;2022-08-18T12:42:24;98466.20;;;34.82;39.58
34921;BME280;21128;50.016;20.002;2022-08-18T12:44:51;98473.27;;;34.83;39.51
34921;BME280;21128;50.016;20.002;2022-08-18T12:47:21;98462.03;;;34.84;38.95
34921;BME280;21128;50.016;20.002;2022-08-18T12:49:50;98462.67;;;34.81;39.15
34921;BME280;21128;50.016;20.002;2022-08-18T12:52:18;98449.28;;;34.93;38.55
34921;BME280;21128;50.016;20.002;2022-08-18T12:54:45;98458.12;;;34.77;38.60
34921;BME280;21128;50.016;20.002;2022-08-18T12:57:19;98459.73;;;34.78;38.93
34921;BME280;21128;50.016;20.002;2022-08-18T12:59:53;98462.78;;;34.76;38.75
34921;BME280;21128;50.016;20.002;2022-08-18T13:02:26;98470.69;;;34.64;38.95
34921;BME280;21128;50.016;20.002;2022-08-18T13:05:00;98466.49;;;34.58;39.12
34921;BME280;21128;50.016;20.002;2022-08-18T13:07:33;98471.22;;;34.66;39.09
34921;BME280;21128;50.016;20.002;2022-08-18T13:10:14;98465.76;;;34.66;38.76
34921;BME280;21128;50.016;20.002;2022-08-18T13:12:41;98458.55;;;34.70;38.98
34921;BME280;21128;50.016;20.002;2022-08-18T13:15:15;98460.55;;;34.78;39.00
34921;BME280;21128;50.016;20.002;2022-08-18T13:17:48;98460.92;;;34.85;38.80
34921;BME280;21128;50.016;20.002;2022-08-18T13:20:16;98459.20;;;34.89;39.04
34921;BME280;21128;50.016;20.002;2022-08-18T13:22:42;98458.11;;;34.90;38.97
34921;BME280;21128;50.016;20.002;2022-08-18T13:25:12;98468.62;;;34.83;38.89
34921;BME280;21128;50.016;20.002;2022-08-18T13:27:40;98469.02;;;34.90;38.27
34921;BME280;21128;50.016;20.002;2022-08-18T13:30:11;98450.58;;;34.96;37.95
34921;BME280;21128;50.016;20.002;2022-08-18T13:32:40;98462.88;;;35.07;38.01
34921;BME280;21128;50.016;20.002;2022-08-18T13:35:07;98457.27;;;35.12;38.19
34921;BME280;21128;50.016;20.002;2022-08-18T13:37:34;98469.84;;;35.22;38.64
34921;BME280;21128;50.016;20.002;2022-08-18T13:40:03;98456.59;;;35.38;38.38
34921;BME280;21128;50.016;20.002;2022-08-18T13:42:30;98466.98;;;35.49;38.08
34921;BME280;21128;50.016;20.002;2022-08-18T13:44:58;98473.78;;;35.61;37.78
34921;BME280;21128;50.016;20.002;2022-08-18T13:47:26;98477.98;;;35.67;37.33
34921;BME280;21128;50.016;20.002;2022-08-18T13:49:54;98466.90;;;35.72;37.09
34921;BME280;21128;50.016;20.002;2022-08-18T13:52:21;98473.81;;;35.69;36.61
34921;BME280;21128;50.016;20.002;2022-08-18T13:54:54;98478.45;;;35.38;36.42
34921;BME280;21128;50.016;20.002;2022-08-18T13:57:21;98477.06;;;35.18;36.74
34921;BME280;21128;50.016;20.002;2022-08-18T13:59:54;98476.06;;;35.14;37.05
34921;BME280;21128;50.016;20.002;2022-08-18T14:02:21;98480.72;;;35.13;37.01
34921;BME280;21128;50.016;20.002;2022-08-18T14:04:47;98483.02;;;35.20;37.07
34921;BME280;21128;50.016;20.002;2022-08-18T14:07:14;98479.36;;;35.24;37.19
34921;BME280;21128;50.016;20.002;2022-08-18T14:09:47;98485.48;;;35.30;37.08
34921;BME280;21128;50.016;20.002;2022-08-18T14:12:22;98485.75;;;35.42;37.26
34921;BME280;21128;50.016;20.002;2022-08-18T14:14:51;98485.83;;;35.60;37.16
34921;BME280;21128;50.016;20.002;2022-08-18T14:17:25;98496.19;;;35.80;36.83
34921;BME280;21128;50.016;20.002;2022-08-18T14:19:59;98490.66;;;35.94;36.82
34921;BME280;21128;50.016;20.002;2022-08-18T14:22:45;98486.70;;;36.17;36.59
34921;BME280;21128;50.016;20.002;2022-08-18T14:25:31;98486.38;;;36.19;36.51
34921;BME280;21128;50.016;20.002;2022-08-18T14:28:16;98480.91;;;36.19;36.37
34921;BME280;21128;50.016;20.002;2022-08-18T14:30:45;98491.50;;;36.12;36.28
34921;BME280;21128;50.016;20.002;2022-08-18T14:33:17;98491.40;;;35.86;35.78
34921;BME280;21128;50.016;20.002;2022-08-18T14:35:45;98489.05;;;35.62;36.08
34921;BME280;21128;50.016;20.002;2022-08-18T14:38:13;98484.98;;;35.50;36.46
34921;BME280;21128;50.016;20.002;2022-08-18T14:40:43;98486.95;;;35.59;36.54
34921;BME280;21128;50.016;20.002;2022-08-18T14:43:11;98477.11;;;35.49;35.93
34921;BME280;21128;50.016;20.002;2022-08-18T14:45:39;98479.05;;;35.26;36.48
34921;BME280;21128;50.016;20.002;2022-08-18T14:48:16;98474.06;;;35.28;36.77
34921;BME280;21128;50.016;20.002;2022-08-18T14:50:47;98462.77;;;35.21;36.50
34921;BME280;21128;50.016;20.002;2022-08-18T14:53:19;98462.94;;;34.93;36.24
34921;BME280;21128;50.016;20.002;2022-08-18T14:55:47;98466.95;;;34.74;36.80
34921;BME280;21128;50.016;20.002;2022-08-18T14:58:19;98457.61;;;34.38;37.00
34921;BME280;21128;50.016;20.002;2022-08-18T15:00:46;98461.14;;;34.39;37.46
34921;BME280;21128;50.016;20.002;2022-08-18T15:03:13;98454.98;;;34.47;37.48
34921;BME280;21128;50.016;20.002;2022-08-18T15:05:40;98462.89;;;34.49;37.51
34921;BME280;21128;50.016;20.002;2022-08-18T15:08:21;98453.09;;;34.48;37.63
34921;BME280;21128;50.016;20.002;2022-08-18T15:10:48;98459.84;;;34.36;37.44
34921;BME280;21128;50.016;20.002;2022-08-18T15:13:21;98449.17;;;34.26;38.00
34921;BME280;21128;50.016;20.002;2022-08-18T15:15:49;98453.56;;;34.00;37.52
34921;BME280;21128;50.016;20.002;2022-08-18T15:18:29;98458.79;;;33.82;38.19
34921;BME280;21128;50.016;20.002;2022-08-18T15:20:56;98461.83;;;33.95;38.15